East Bridgewater, Massachusetts
Current Conditions -  °F | °C
As of 1:52 AM on Sunday 23 Nov 2014 (Local Time) from KTAN Reporting Station
Broken Clouds Broken Clouds  
Wind Chill: 41°   Ceiling: 9500
Heat Index: 46°   Visibility: 10mi
Dew Point: 27°   Wind: 12mph
Humidity: 47%   Direction: 230°SW
Pressure: 30.1"   Gusts: 21mph
Location:  42.03°N, 70.96°W
Report Text: KTAN 230652Z AUTO 23010G18KT 210V270 10SM BKN095 08/M03 A3010 RMK AO2 RAE0555 SLP193 P0000 T00781028
Loading
Personal Weather Stations






























Interactive Weather Map New forecast layout! Learn more

10-Day Weather Forecast

Advertisements
Track Severe Weather on mobile